createdAt,value
2019-03-24T00:01:24.534Z,8.80
2019-03-24T00:03:52.861Z,8.40
2019-03-24T00:06:21.181Z,9.20
2019-03-24T00:08:49.597Z,8.63
2019-03-24T00:11:17.926Z,8.83
2019-03-24T00:13:46.287Z,8.20
2019-03-24T00:16:15.510Z,8.37
2019-03-24T00:18:43.846Z,8.13
2019-03-24T00:21:12.401Z,8.67
2019-03-24T00:23:40.861Z,7.70
2019-03-24T00:26:09.245Z,7.80
2019-03-24T00:28:37.642Z,8.30
2019-03-24T00:31:06.158Z,8.70
2019-03-24T00:33:34.476Z,7.80
2019-03-24T00:36:05.849Z,7.90
2019-03-24T00:38:34.482Z,7.53
2019-03-24T00:41:02.806Z,7.47
2019-03-24T00:43:31.185Z,8.27
2019-03-24T00:45:59.705Z,8.30
2019-03-24T00:48:28.072Z,6.40
2019-03-24T00:50:56.417Z,6.00
2019-03-24T00:53:24.960Z,7.40
2019-03-24T00:55:53.332Z,7.83
2019-03-24T00:58:21.701Z,27.40
2019-03-24T01:00:50.286Z,9.10
2019-03-24T01:03:18.638Z,8.07
2019-03-24T01:05:47.369Z,7.03
2019-03-24T01:08:15.971Z,6.83
2019-03-24T01:10:44.383Z,7.07
2019-03-24T01:13:13.568Z,6.57
2019-03-24T01:15:47.712Z,7.00
2019-03-24T01:18:12.434Z,6.70
2019-03-24T01:20:40.761Z,6.37
2019-03-24T01:23:09.436Z,6.87
2019-03-24T01:25:37.775Z,6.97
2019-03-24T01:28:06.142Z,7.17
2019-03-24T01:30:34.723Z,6.13
2019-03-24T01:33:03.258Z,6.80
2019-03-24T01:35:31.610Z,7.53
2019-03-24T01:38:00.583Z,6.47
2019-03-24T01:40:28.930Z,7.17
2019-03-24T01:42:57.257Z,6.73
2019-03-24T01:45:25.615Z,6.63
2019-03-24T01:47:53.980Z,6.40
2019-03-24T01:50:22.312Z,6.40
2019-03-24T01:52:50.873Z,6.63
2019-03-24T01:55:19.213Z,7.73
2019-03-24T01:57:47.549Z,6.87
2019-03-24T02:00:16.034Z,6.77
2019-03-24T02:02:44.371Z,6.17
2019-03-24T02:05:12.829Z,6.37
2019-03-24T02:07:41.290Z,6.83
2019-03-24T02:10:10.133Z,6.80
2019-03-24T02:12:38.499Z,6.50
2019-03-24T02:15:07.733Z,6.73
2019-03-24T02:17:36.315Z,6.80
2019-03-24T02:20:05.014Z,6.70
2019-03-24T02:22:33.465Z,6.17
2019-03-24T02:25:01.935Z,7.27
2019-03-24T02:27:30.509Z,6.80
2019-03-24T02:29:58.996Z,6.27
2019-03-24T02:32:27.321Z,6.43
2019-03-24T02:34:55.988Z,6.10
2019-03-24T02:37:24.419Z,6.47
2019-03-24T02:39:52.787Z,6.27
2019-03-24T02:42:21.121Z,6.07
2019-03-24T02:44:49.602Z,6.50
2019-03-24T02:47:17.954Z,6.83
2019-03-24T02:49:46.286Z,6.20
2019-03-24T02:52:14.699Z,6.33
2019-03-24T02:54:43.016Z,6.43
2019-03-24T02:57:11.369Z,6.93
2019-03-24T02:59:39.961Z,6.97
2019-03-24T03:02:08.283Z,5.97
2019-03-24T03:04:36.613Z,6.73
2019-03-24T03:07:04.996Z,5.77
2019-03-24T03:09:33.334Z,6.20
2019-03-24T03:12:01.661Z,6.23
2019-03-24T03:14:30.849Z,7.20
2019-03-24T03:16:59.198Z,6.87
2019-03-24T03:19:27.526Z,6.90
2019-03-24T03:21:55.959Z,6.03
2019-03-24T03:24:24.331Z,5.90
2019-03-24T03:26:53.180Z,6.63
2019-03-24T03:29:21.548Z,6.73
2019-03-24T03:31:49.878Z,5.40
2019-03-24T03:34:18.214Z,6.50
2019-03-24T03:36:46.686Z,6.60
2019-03-24T03:39:15.027Z,6.13
2019-03-24T03:41:43.580Z,6.17
2019-03-24T03:44:12.178Z,6.17
2019-03-24T03:46:51.905Z,6.50
2019-03-24T03:49:10.544Z,6.23
2019-03-24T03:51:38.990Z,5.80
2019-03-24T03:54:07.313Z,5.90
2019-03-24T03:56:36.116Z,5.87
2019-03-24T03:59:04.501Z,6.87
2019-03-24T04:01:32.831Z,5.77
2019-03-24T04:04:01.164Z,6.83
2019-03-24T04:06:29.883Z,6.50
2019-03-24T04:08:58.215Z,6.40
2019-03-24T04:11:26.556Z,5.80
2019-03-24T04:13:55.010Z,6.00
2019-03-24T04:16:23.334Z,6.57
2019-03-24T04:18:51.679Z,6.50
2019-03-24T04:21:20.063Z,5.93
2019-03-24T04:23:48.399Z,6.47
2019-03-24T04:26:16.758Z,7.07
2019-03-24T04:28:45.871Z,6.03
2019-03-24T04:31:14.215Z,6.63
2019-03-24T04:33:42.589Z,6.43
2019-03-24T04:36:11.105Z,6.17
2019-03-24T04:38:39.445Z,6.03
2019-03-24T04:41:07.794Z,5.83
2019-03-24T04:43:36.161Z,5.90
2019-03-24T04:46:04.748Z,5.83
2019-03-24T04:48:33.072Z,6.83
2019-03-24T04:51:01.516Z,6.37
2019-03-24T04:53:29.841Z,6.40
2019-03-24T04:55:58.361Z,6.80
2019-03-24T04:58:26.811Z,5.93
2019-03-24T05:00:55.138Z,6.03
2019-03-24T05:03:23.454Z,6.37
2019-03-24T05:05:51.934Z,6.00
2019-03-24T05:08:20.245Z,6.80
2019-03-24T05:10:48.556Z,5.80
2019-03-24T05:13:16.971Z,5.73
2019-03-24T05:15:45.309Z,6.37
2019-03-24T05:18:13.621Z,6.63
2019-03-24T05:20:42.097Z,6.30
2019-03-24T05:23:10.426Z,5.87
2019-03-24T05:25:38.761Z,6.20
2019-03-24T05:28:07.147Z,6.13
2019-03-24T05:30:35.872Z,6.57
2019-03-24T05:33:04.221Z,6.77
2019-03-24T05:35:32.898Z,5.93
2019-03-24T05:38:01.232Z,6.40
2019-03-24T05:40:29.580Z,6.27
2019-03-24T05:42:57.957Z,6.23
2019-03-24T05:45:26.273Z,6.70
2019-03-24T05:47:54.610Z,5.90
2019-03-24T05:50:22.989Z,6.17
2019-03-24T05:52:51.326Z,5.93
2019-03-24T05:55:19.690Z,5.70
2019-03-24T05:57:48.128Z,6.13
2019-03-24T06:00:17.061Z,7.07
2019-03-24T06:02:45.442Z,6.20
2019-03-24T06:05:14.052Z,6.23
2019-03-24T06:07:42.373Z,5.97
2019-03-24T06:10:10.823Z,5.90
2019-03-24T06:12:39.301Z,6.50
2019-03-24T06:15:07.655Z,6.10
2019-03-24T06:17:36.077Z,7.10
2019-03-24T06:20:04.838Z,6.17
2019-03-24T06:22:33.195Z,6.23
2019-03-24T06:25:01.562Z,6.53
2019-03-24T06:27:30.080Z,6.63
2019-03-24T06:29:58.460Z,6.17
2019-03-24T06:32:27.509Z,7.00
2019-03-24T06:34:56.057Z,6.40
2019-03-24T06:37:24.378Z,6.13
2019-03-24T06:39:53.247Z,6.57
2019-03-24T06:42:21.809Z,6.43
2019-03-24T06:44:50.163Z,6.20
2019-03-24T06:47:18.498Z,6.30
2019-03-24T06:49:46.889Z,6.60
2019-03-24T06:52:15.632Z,5.80
2019-03-24T06:54:43.943Z,6.27
2019-03-24T06:57:12.304Z,6.67
2019-03-24T06:59:40.635Z,6.73
2019-03-24T07:02:08.941Z,6.83
2019-03-24T07:04:37.561Z,5.90
2019-03-24T07:07:05.879Z,5.87
2019-03-24T07:09:34.208Z,5.70
2019-03-24T07:12:02.726Z,6.37
2019-03-24T07:14:31.228Z,6.27
2019-03-24T07:16:59.569Z,6.33
2019-03-24T07:19:27.926Z,5.60
2019-03-24T07:21:56.273Z,6.27
2019-03-24T07:24:24.582Z,6.10
2019-03-24T07:26:53.223Z,6.07
2019-03-24T07:29:21.572Z,5.80
2019-03-24T07:31:49.917Z,6.60
2019-03-24T07:34:18.780Z,6.20
2019-03-24T07:36:47.133Z,6.97
2019-03-24T07:39:15.540Z,5.80
2019-03-24T07:41:43.955Z,6.53
2019-03-24T07:44:12.298Z,6.10
2019-03-24T07:46:40.651Z,6.17
2019-03-24T07:49:09.221Z,6.23
2019-03-24T07:51:37.581Z,6.00
2019-03-24T07:54:05.909Z,5.93
2019-03-24T07:56:34.313Z,6.43
2019-03-24T07:59:02.676Z,6.10
2019-03-24T08:01:31.337Z,6.73
2019-03-24T08:03:59.829Z,5.40
2019-03-24T08:06:28.198Z,6.37
2019-03-24T08:08:56.578Z,7.27
2019-03-24T08:11:25.040Z,5.83
2019-03-24T08:13:54.220Z,5.70
2019-03-24T08:16:22.597Z,6.87
2019-03-24T08:18:51.017Z,9.30
2019-03-24T08:21:19.352Z,8.80
2019-03-24T08:23:47.729Z,6.53
2019-03-24T08:26:16.124Z,6.20
2019-03-24T08:28:44.466Z,5.90
2019-03-24T08:31:12.813Z,5.77
2019-03-24T08:33:41.304Z,6.27
2019-03-24T08:36:09.987Z,5.50
2019-03-24T08:38:38.318Z,5.53
2019-03-24T08:41:06.788Z,5.17
2019-03-24T08:43:35.253Z,5.30
2019-03-24T08:46:03.586Z,5.57
2019-03-24T08:48:40.504Z,5.50
2019-03-24T08:51:01.938Z,6.07
2019-03-24T08:53:30.268Z,5.80
2019-03-24T08:55:59.016Z,5.33
2019-03-24T08:58:27.359Z,6.17
2019-03-24T09:00:55.691Z,5.87
2019-03-24T09:03:24.109Z,5.50
2019-03-24T09:05:52.424Z,6.37
2019-03-24T09:08:20.780Z,5.60
2019-03-24T09:10:49.655Z,5.90
2019-03-24T09:13:18.002Z,6.13
2019-03-24T09:15:46.371Z,6.30
2019-03-24T09:18:15.015Z,6.07
2019-03-24T09:20:43.341Z,5.20
2019-03-24T09:23:11.710Z,4.93
2019-03-24T09:25:40.110Z,5.20
2019-03-24T09:28:09.331Z,5.60
2019-03-24T09:30:39.388Z,5.43
2019-03-24T09:33:07.786Z,4.90
2019-03-24T09:35:36.208Z,4.43
2019-03-24T09:38:05.309Z,4.47
2019-03-24T09:40:34.453Z,5.27
2019-03-24T09:43:03.103Z,4.50
2019-03-24T09:45:31.620Z,4.60
2019-03-24T09:48:00.317Z,5.10
2019-03-24T09:50:28.626Z,4.70
2019-03-24T09:52:56.966Z,5.10
2019-03-24T09:55:25.316Z,4.70
2019-03-24T09:57:53.762Z,5.10
2019-03-24T10:00:22.101Z,4.83
2019-03-24T10:02:50.605Z,4.50
2019-03-24T10:05:18.955Z,5.00
2019-03-24T10:07:47.308Z,5.20
2019-03-24T10:10:15.686Z,5.23
2019-03-24T10:12:43.996Z,5.27
2019-03-24T10:15:12.319Z,5.67
2019-03-24T10:17:40.771Z,5.00
2019-03-24T10:20:09.181Z,5.40
2019-03-24T10:22:37.503Z,5.57
2019-03-24T10:25:06.206Z,5.00
2019-03-24T10:27:34.542Z,5.20
2019-03-24T10:30:02.900Z,5.30
2019-03-24T10:32:31.627Z,4.90
2019-03-24T10:34:59.955Z,4.83
2019-03-24T10:37:28.283Z,5.10
2019-03-24T10:39:56.819Z,4.87
2019-03-24T10:42:25.221Z,4.93
2019-03-24T10:44:53.561Z,5.30
2019-03-24T10:47:24.763Z,5.20
2019-03-24T10:49:53.261Z,5.73
2019-03-24T10:52:21.613Z,5.13
2019-03-24T10:54:50.029Z,5.97
2019-03-24T10:57:18.357Z,5.63
2019-03-24T10:59:46.725Z,5.20
2019-03-24T11:02:16.790Z,5.63
2019-03-24T11:04:45.113Z,4.67
2019-03-24T11:07:13.445Z,4.63
2019-03-24T11:09:41.910Z,4.70
2019-03-24T11:12:10.250Z,4.27
2019-03-24T11:14:38.581Z,4.37
2019-03-24T11:17:07.049Z,4.67
2019-03-24T11:19:36.173Z,4.57
2019-03-24T11:22:04.544Z,4.63
2019-03-24T11:24:33.246Z,4.90
2019-03-24T11:27:01.787Z,4.17
2019-03-24T11:29:30.120Z,4.83
2019-03-24T11:31:58.609Z,5.10
2019-03-24T11:34:26.961Z,4.27
2019-03-24T11:36:57.196Z,4.77
2019-03-24T11:39:25.600Z,3.87
2019-03-24T11:41:54.083Z,4.07
2019-03-24T11:44:22.425Z,4.27
2019-03-24T11:46:50.937Z,3.23
2019-03-24T11:49:19.705Z,3.53
2019-03-24T11:51:55.373Z,3.67
2019-03-24T11:54:23.881Z,3.50
2019-03-24T11:56:52.279Z,4.07
2019-03-24T11:59:20.869Z,3.50
2019-03-24T12:01:49.981Z,4.53
2019-03-24T12:04:18.314Z,3.60
2019-03-24T12:06:49.867Z,4.43
2019-03-24T12:09:24.166Z,4.30
2019-03-24T12:11:52.674Z,3.87
2019-03-24T12:14:21.120Z,3.50
2019-03-24T12:16:53.562Z,3.37
2019-03-24T12:19:22.065Z,3.83
2019-03-24T12:21:53.796Z,3.27
2019-03-24T12:24:22.441Z,3.57
2019-03-24T12:26:52.970Z,3.90
2019-03-24T12:29:26.836Z,3.27
2019-03-24T12:32:04.208Z,3.50
2019-03-24T12:34:34.955Z,3.47
2019-03-24T12:37:03.975Z,2.80
2019-03-24T12:39:43.150Z,3.20
2019-03-24T12:42:11.440Z,3.73
2019-03-24T12:44:40.099Z,3.55
2019-03-24T12:47:08.678Z,3.67
2019-03-24T12:49:41.596Z,3.77
2019-03-24T12:52:10.354Z,3.33
2019-03-24T12:54:38.925Z,3.23
2019-03-24T12:57:07.285Z,3.30
2019-03-24T12:59:36.809Z,3.00
2019-03-24T13:02:07.721Z,2.93
2019-03-24T13:04:36.122Z,2.50
2019-03-24T13:07:04.585Z,2.73
2019-03-24T13:09:33.781Z,2.40
2019-03-24T13:12:02.300Z,3.27
2019-03-24T13:14:30.942Z,2.70
2019-03-24T13:16:59.537Z,2.60
2019-03-24T13:19:27.859Z,3.00
2019-03-24T13:21:58.241Z,3.47
2019-03-24T13:24:26.734Z,3.30
2019-03-24T13:26:55.105Z,2.67
2019-03-24T13:29:24.115Z,2.90
2019-03-24T13:31:52.581Z,2.93
2019-03-24T13:34:20.889Z,3.00
2019-03-24T13:36:49.271Z,2.97
2019-03-24T13:39:17.645Z,3.20
2019-03-24T13:41:46.020Z,3.00
2019-03-24T13:44:14.353Z,2.87
2019-03-24T13:46:43.404Z,2.93
2019-03-24T13:49:12.101Z,2.83
2019-03-24T13:51:40.453Z,2.77
2019-03-24T13:54:08.853Z,3.30
2019-03-24T13:56:37.191Z,2.73
2019-03-24T13:59:05.493Z,2.47
2019-03-24T14:01:33.905Z,3.10
2019-03-24T14:04:02.241Z,2.73
2019-03-24T14:06:30.552Z,3.00
2019-03-24T14:09:01.799Z,3.03
2019-03-24T14:11:30.149Z,3.43
2019-03-24T14:13:58.514Z,2.90
2019-03-24T14:16:28.147Z,3.23
2019-03-24T14:18:56.585Z,4.47
2019-03-24T14:21:24.905Z,3.13
2019-03-24T14:23:53.636Z,2.47
2019-03-24T14:26:22.053Z,2.90
2019-03-24T14:28:50.665Z,3.30
2019-03-24T14:31:19.270Z,2.70
2019-03-24T14:33:49.945Z,3.57
2019-03-24T14:36:19.311Z,3.17
2019-03-24T14:38:47.850Z,3.00
2019-03-24T14:41:16.151Z,3.07
2019-03-24T14:43:44.485Z,3.27
2019-03-24T14:46:12.888Z,2.80
2019-03-24T14:48:41.679Z,3.50
2019-03-24T14:51:10.058Z,2.90
2019-03-24T14:53:38.637Z,3.07
2019-03-24T14:56:07.050Z,3.10
2019-03-24T14:58:35.424Z,3.00
2019-03-24T15:01:03.905Z,2.80
2019-03-24T15:03:32.261Z,3.03
2019-03-24T15:06:01.489Z,3.10
2019-03-24T15:08:29.868Z,2.93
2019-03-24T15:10:59.821Z,3.30
2019-03-24T15:13:30.291Z,3.30
2019-03-24T15:15:59.091Z,3.83
2019-03-24T15:18:27.501Z,3.30
2019-03-24T15:21:05.585Z,3.47
2019-03-24T15:23:28.661Z,5.13
2019-03-24T15:25:56.978Z,6.13
2019-03-24T15:28:28.124Z,3.73
2019-03-24T15:30:56.604Z,6.23
2019-03-24T15:33:24.942Z,7.40
2019-03-24T15:35:53.311Z,4.83
2019-03-24T15:38:21.957Z,4.37
2019-03-24T15:40:50.491Z,3.63
2019-03-24T15:43:18.970Z,4.07
2019-03-24T15:45:47.346Z,3.93
2019-03-24T15:48:15.705Z,4.30
2019-03-24T15:50:44.370Z,3.67
2019-03-24T15:53:12.990Z,5.90
2019-03-24T15:55:41.490Z,6.50
2019-03-24T15:58:09.894Z,4.73
2019-03-24T16:00:42.380Z,4.53
2019-03-24T16:03:13.036Z,5.27
2019-03-24T16:05:41.412Z,5.67
2019-03-24T16:08:09.885Z,8.43
2019-03-24T16:10:38.249Z,5.00
2019-03-24T16:13:06.977Z,4.77
2019-03-24T16:15:37.532Z,4.27
2019-03-24T16:18:05.892Z,6.77
2019-03-24T16:20:34.260Z,6.27
2019-03-24T16:23:02.719Z,4.67
2019-03-24T16:25:33.785Z,6.47
2019-03-24T16:28:02.204Z,4.80
2019-03-24T16:30:33.717Z,4.40
2019-03-24T16:33:05.980Z,4.47
2019-03-24T16:35:34.460Z,4.23
2019-03-24T16:38:02.958Z,4.07
2019-03-24T16:40:31.550Z,5.00
2019-03-24T16:42:59.957Z,4.63
2019-03-24T16:45:28.395Z,4.80
2019-03-24T16:47:56.771Z,5.30
2019-03-24T16:50:26.488Z,6.53
2019-03-24T16:52:55.137Z,5.57
2019-03-24T16:55:23.488Z,7.13
2019-03-24T16:57:51.841Z,4.97
2019-03-24T17:00:20.604Z,4.87
2019-03-24T17:02:48.984Z,5.70
2019-03-24T17:05:17.477Z,4.77
2019-03-24T17:07:45.995Z,5.93
2019-03-24T17:10:14.361Z,5.27
2019-03-24T17:12:42.701Z,5.07
2019-03-24T17:15:13.927Z,6.97
2019-03-24T17:17:42.402Z,6.70
2019-03-24T17:20:10.780Z,4.70
2019-03-24T17:22:39.470Z,6.03
2019-03-24T17:25:08.147Z,4.83
2019-03-24T17:27:36.512Z,5.03
2019-03-24T17:30:05.769Z,7.27
2019-03-24T17:32:34.207Z,7.50
2019-03-24T17:35:08.589Z,4.87
2019-03-24T17:37:36.983Z,6.73
2019-03-24T17:40:05.945Z,6.30
2019-03-24T17:45:23.093Z,4.20
2019-03-24T17:47:51.431Z,4.47
2019-03-24T17:50:19.789Z,4.87
2019-03-24T17:52:48.262Z,6.97
2019-03-24T17:55:26.821Z,5.57
2019-03-24T17:57:46.725Z,4.70
2019-03-24T18:00:17.326Z,9.10
2019-03-24T18:02:45.672Z,7.53
2019-03-24T18:05:14.955Z,5.07
2019-03-24T18:07:43.574Z,9.07
2019-03-24T18:10:12.037Z,6.03
2019-03-24T18:12:40.381Z,7.90
2019-03-24T18:15:09.197Z,8.53
2019-03-24T18:17:37.509Z,5.50
2019-03-24T18:20:07.410Z,5.10
2019-03-24T18:22:35.821Z,4.40
2019-03-24T18:25:06.934Z,5.37
2019-03-24T18:27:35.349Z,5.00
2019-03-24T18:30:04.753Z,4.37
2019-03-24T18:32:33.179Z,5.47
2019-03-24T18:35:02.115Z,4.90
2019-03-24T18:37:30.569Z,5.20
2019-03-24T18:39:58.921Z,4.40
2019-03-24T18:42:27.941Z,6.63
2019-03-24T18:44:56.630Z,5.53
2019-03-24T18:47:33.025Z,4.30
2019-03-24T18:50:01.382Z,4.47
2019-03-24T18:52:29.818Z,3.60
2019-03-24T18:54:58.143Z,5.53
2019-03-24T18:57:26.571Z,4.80
2019-03-24T18:59:55.003Z,3.37
2019-03-24T19:02:23.318Z,3.10
2019-03-24T19:04:51.623Z,4.77
2019-03-24T19:07:20.096Z,3.43
2019-03-24T19:09:48.418Z,4.30
2019-03-24T19:12:16.769Z,5.60
2019-03-24T19:14:45.190Z,5.27
2019-03-24T19:17:13.542Z,4.27
2019-03-24T19:19:44.907Z,3.10
2019-03-24T19:22:13.433Z,3.33
2019-03-24T19:24:42.541Z,3.33
2019-03-24T19:27:10.874Z,3.20
2019-03-24T19:29:39.313Z,3.47
2019-03-24T19:32:07.673Z,3.67
2019-03-24T19:34:36.139Z,3.20
2019-03-24T19:37:04.603Z,3.00
2019-03-24T19:39:33.240Z,2.83
2019-03-24T19:42:01.630Z,3.23
2019-03-24T19:44:30.031Z,4.00
2019-03-24T19:46:58.608Z,4.87
2019-03-24T19:49:27.414Z,3.00
2019-03-24T19:51:56.174Z,2.73
2019-03-24T19:54:24.682Z,3.70
2019-03-24T19:56:53.039Z,2.50
2019-03-24T19:59:21.816Z,3.10
2019-03-24T20:01:50.177Z,3.63
2019-03-24T20:04:18.531Z,3.33
2019-03-24T20:06:46.995Z,2.87
2019-03-24T20:09:15.855Z,3.00
2019-03-24T20:11:44.219Z,3.40
2019-03-24T20:14:13.045Z,2.83
2019-03-24T20:16:41.382Z,3.23
2019-03-24T20:19:09.716Z,2.97
2019-03-24T20:21:38.202Z,2.80
2019-03-24T20:24:06.561Z,2.77
2019-03-24T20:26:34.937Z,3.13
2019-03-24T20:29:03.423Z,2.53
2019-03-24T20:31:31.782Z,3.10
2019-03-24T20:34:00.135Z,3.40
2019-03-24T20:36:28.775Z,3.40
2019-03-24T20:38:57.158Z,3.10
2019-03-24T20:41:25.534Z,4.13
2019-03-24T20:43:53.989Z,3.53
2019-03-24T20:46:22.373Z,2.97
2019-03-24T20:48:50.745Z,3.47
2019-03-24T20:51:19.108Z,4.00
2019-03-24T20:53:47.424Z,3.63
2019-03-24T20:56:15.731Z,3.60
2019-03-24T20:58:44.320Z,3.20
2019-03-24T21:01:12.882Z,4.30
2019-03-24T21:03:41.208Z,4.00
2019-03-24T21:06:09.691Z,3.37
2019-03-24T21:08:38.032Z,3.07
2019-03-24T21:11:06.386Z,4.03
2019-03-24T21:13:34.861Z,4.77
2019-03-24T21:16:03.237Z,3.57
2019-03-24T21:18:31.596Z,5.10
2019-03-24T21:21:00.058Z,4.10
2019-03-24T21:23:29.901Z,3.67
2019-03-24T21:25:58.407Z,3.77
2019-03-24T21:28:26.796Z,3.93
2019-03-24T21:30:55.153Z,4.07
2019-03-24T21:33:23.531Z,4.20
2019-03-24T21:35:52.036Z,3.43
2019-03-24T21:38:20.476Z,3.93
2019-03-24T21:40:48.868Z,4.33
2019-03-24T21:43:17.367Z,4.87
2019-03-24T21:45:45.710Z,3.87
2019-03-24T21:48:14.030Z,4.23
2019-03-24T21:50:42.409Z,4.17
2019-03-24T21:53:10.753Z,4.53
2019-03-24T21:55:39.101Z,4.03
2019-03-24T21:58:07.579Z,4.53
2019-03-24T22:00:36.425Z,4.73
2019-03-24T22:03:05.425Z,4.10
2019-03-24T22:05:33.868Z,3.93
2019-03-24T22:08:02.217Z,5.73
2019-03-24T22:10:31.593Z,4.13
2019-03-24T22:12:59.974Z,3.77
2019-03-24T22:15:28.338Z,4.33
2019-03-24T22:17:57.804Z,4.73
2019-03-24T22:20:27.532Z,3.50
2019-03-24T22:22:55.890Z,3.93
2019-03-24T22:25:24.207Z,3.67
2019-03-24T22:27:52.655Z,3.90
2019-03-24T22:30:21.013Z,4.23
2019-03-24T22:32:49.357Z,4.57
2019-03-24T22:35:17.861Z,4.13
2019-03-24T22:37:46.205Z,3.83
2019-03-24T22:40:15.061Z,3.63
2019-03-24T22:42:43.559Z,4.03
2019-03-24T22:45:11.998Z,4.03
2019-03-24T22:47:40.344Z,4.03
2019-03-24T22:50:08.969Z,3.70
2019-03-24T22:52:37.334Z,4.17
2019-03-24T22:55:05.819Z,3.57
2019-03-24T22:57:34.303Z,5.63
2019-03-24T23:00:03.209Z,6.13
2019-03-24T23:02:31.661Z,4.97
2019-03-24T23:05:00.461Z,4.30
2019-03-24T23:07:28.787Z,4.33
2019-03-24T23:09:57.111Z,4.67
2019-03-24T23:12:25.657Z,4.27
2019-03-24T23:14:54.028Z,4.03
2019-03-24T23:17:22.385Z,5.20
2019-03-24T23:19:50.888Z,3.57
2019-03-24T23:22:19.223Z,4.20
2019-03-24T23:24:47.595Z,4.13
2019-03-24T23:27:16.043Z,4.30
2019-03-24T23:29:44.369Z,4.77
2019-03-24T23:32:12.710Z,4.10
2019-03-24T23:34:41.299Z,3.90
2019-03-24T23:37:09.649Z,3.87
2019-03-24T23:39:37.995Z,4.37
2019-03-24T23:42:06.535Z,4.23
2019-03-24T23:44:34.874Z,4.50
2019-03-24T23:47:03.214Z,4.30
2019-03-24T23:49:31.699Z,4.33
2019-03-24T23:52:00.030Z,4.53
2019-03-24T23:54:28.449Z,4.67
2019-03-24T23:56:57.035Z,4.60
2019-03-24T23:59:25.774Z,4.40
